Meteo Giornale » Osservazioni meteo Austria » Klagenfurt

ore: 17:20 - Osservazioni Meteo Klagenfurt
Lat. 46° 39' N Lon. 14° 20' E Alt. 448 metri s.l.m.

sereno

26 °C

Sereno

Temp. 24 Ore

16 °C

29 °C

Est

9.3 Km/h

Dew point 12 °C

Umidità 41 %

Visibilità  10 Km

Il sole sorge alle ore 06:22

Il sole tramonta alle ore 19:42

Data e Ora Cielo e Fenomeni T °C DP °C Um. % Pres. hPa Vis. km Vento km/h
Oggi h: 17:20 sereno Sereno 26 12 41 1020 10 E 9.3
Oggi h: 16:50 sereno Sereno 26 12 41 1020 10 N 3.7
Oggi h: 16:20 sereno Sereno 26 12 41 1020 10 N 5.5
Oggi h: 15:50 sereno Sereno 26 13 44 1020 10 E 7.4
Oggi h: 15:20 sereno Sereno 25 12 44 1021 10 N 7.4
Oggi h: 14:50 sereno Sereno 25 13 47 1021 10 E/SE 7.4
Oggi h: 14:20 sereno Sereno 24 13 50 1021 10 N 5.5
Oggi h: 13:50 sereno Sereno 24 15 57 1022 10 N 3.7
Oggi h: 13:20 poco_nuvoloso Poco Nuvoloso 23 14 56 1022 10 N 5.5
Oggi h: 12:50 nuvoloso Nuvoloso 22 14 60 1023 10 N 3.7
Oggi h: 12:20 nuvoloso Nuvoloso 21 13 60 1023 10 N 3.7
Oggi h: 11:50 nuvoloso Nuvoloso 20 15 72 1023 10 NO 7.4
Oggi h: 11:20 molto_nuvoloso Molto Nuvoloso 19 14 72 1023 10 N 5.5
Oggi h: 10:50 molto_nuvoloso Molto Nuvoloso 18 15 82 1024 10 N 3.7
Oggi h: 10:20 molto_nuvoloso Molto Nuvoloso 18 14 77 1024 10 N/NO 7.4
Oggi h: 09:50 molto_nuvoloso Molto Nuvoloso 17 14 82 1023 10 NO 9.3
Oggi h: 09:20 molto_nuvoloso Molto Nuvoloso 17 14 82 1023 10 NO 7.4
Oggi h: 08:50 molto_nuvoloso Molto Nuvoloso 17 14 82 1023 10 N/NE 7.4
Oggi h: 08:20 molto_nuvoloso Molto Nuvoloso 17 14 82 1023 10 N 3.7
Oggi h: 07:50 molto_nuvoloso Molto Nuvoloso 16 14 87 1023 10 N 1.8
Oggi h: 07:20 molto_nuvoloso Molto Nuvoloso 16 14 87 1023 10 N 1.8
Oggi h: 06:50 molto_nuvoloso Molto Nuvoloso 16 14 87 1022 10 N 5.5
Oggi h: 06:20 molto_nuvoloso Molto Nuvoloso 16 15 93 1022 10 N 5.5
Oggi h: 05:50 molto_nuvoloso Molto Nuvoloso 16 15 93 1022 10 N 5.5
Oggi h: 05:20 molto_nuvoloso Molto Nuvoloso 16 15 93 1022 10 N 5.5
Oggi h: 04:50 nuvoloso Nuvoloso 16 15 93 1022 10 N 1.8
Oggi h: 04:20 molto_nuvoloso Molto Nuvoloso 16 15 93 1022 10 N 1.8
Oggi h: 03:50 molto_nuvoloso Molto Nuvoloso 16 15 93 1022 10 N 1.8
Oggi h: 03:20 molto_nuvoloso Molto Nuvoloso 16 15 93 1022 10 N 3.7
Oggi h: 02:50 poco_nuvoloso Poco Nuvoloso 16 15 93 1022 10 N 5.5
Oggi h: 02:20 poco_nuvoloso Poco Nuvoloso 16 15 93 1022 10 N 5.5
Oggi h: 01:50 sereno Sereno 16 15 93 1022 10 NO 7.4
Oggi h: 01:20 sereno Sereno 16 15 93 1022 10 NO 7.4
Oggi h: 00:50 sereno Sereno 16 15 93 1021 10 NO 9.3
Oggi h: 00:20 poco_nuvoloso Poco Nuvoloso 16 15 93 1021 10 N 5.5
Ieri h: 23:50 nuvoloso_piovaschi Pioggia 17 14 82 1021 10 N 3.7
Ieri h: 23:20 coperto_pioggia Pioggia 17 14 82 1022 7 NO 14.8
Ieri h: 22:50 nuvoloso_temporali Temporale nelle vicinanze 17 13 77 1021 10 N/NE 7.4
Ieri h: 22:20 nuvoloso_temporali Temporale nelle vicinanze 20 12 59 1020 10 N 29.6
Ieri h: 21:50 molto_nuvoloso Molto Nuvoloso 22 11 49 1019 10 N 33.3
Ieri h: 21:20 molto_nuvoloso Molto Nuvoloso 23 13 53 1018 10 N 18.5
Ieri h: 20:50 poco_nuvoloso Poco Nuvoloso 22 13 56 1016 10 N/NE 14.8
Ieri h: 20:20 molto_nuvoloso Molto Nuvoloso 22 13 56 1015 10 N/NE 18.5
Ieri h: 19:50 molto_nuvoloso Molto Nuvoloso 22 13 56 1015 10 N 25.9
Ieri h: 19:20 molto_nuvoloso Molto Nuvoloso 24 13 50 1014 10 N 24
Ieri h: 18:50 sereno Sereno 28 15 45 1014 10 N 3.7
Ieri h: 18:20 sereno Sereno 29 14 39 1014 10 SO 7.4
Ieri h: 17:50 molto_nuvoloso Molto Nuvoloso 29 14 39 1014 10 N/NE 7.4